Time;durP1;ratioP1;P1;durP2;ratioP2;P2;SDS_P1;SDS_P2;PMS_P1;PMS_P2;Temp;Humidity;BMP_temperature;BMP_pressure;BME280_temperature;BME280_humidity;BME280_pressure;Samples;Min_cycle;Max_cycle;Signal;HPM_P1;HPM_P2
2021/06/30 00:02:13;;;;;;;1.17;1.08;;;;;;;25.92;33.49;99816.19;5075196;28;20044;-37
2021/06/30 00:04:45;;;;;;;3.53;1.00;;;;;;;25.92;33.41;99810.84;5074930;28;20079;-34
2021/06/30 00:07:17;;;;;;;3.22;0.95;;;;;;;25.91;33.53;99806.53;5075949;28;20143;-37
2021/06/30 00:09:49;;;;;;;1.85;0.93;;;;;;;25.95;33.40;99801.66;5075936;28;20048;-37
2021/06/30 00:12:21;;;;;;;5.93;1.30;;;;;;;25.91;33.52;99801.19;5075469;28;20112;-36
2021/06/30 00:14:55;;;;;;;2.15;0.80;;;;;;;25.89;33.38;99800.56;5075827;28;20044;-37
2021/06/30 00:17:27;;;;;;;0.95;0.90;;;;;;;25.87;33.41;99797.25;5061106;28;20037;-37
2021/06/30 00:19:59;;;;;;;1.02;0.98;;;;;;;25.87;33.43;99802.56;5055547;28;20045;-37
2021/06/30 00:22:32;;;;;;;0.85;0.85;;;;;;;25.91;33.27;99801.19;5054934;28;20124;-36
2021/06/30 00:25:05;;;;;;;0.95;0.90;;;;;;;25.90;33.35;99796.88;5058162;28;20037;-37
2021/06/30 00:27:37;;;;;;;1.02;0.82;;;;;;;25.89;33.53;99800.56;5075252;28;20075;-38
2021/06/30 00:30:10;;;;;;;1.17;0.95;;;;;;;25.90;33.13;99790.72;5075303;28;20048;-37
2021/06/30 00:32:41;;;;;;;1.00;0.90;;;;;;;25.86;33.18;99785.72;5075043;28;20082;-37
2021/06/30 00:35:17;;;;;;;1.25;0.98;;;;;;;25.85;33.40;99789.41;5074853;28;20119;-36
2021/06/30 00:37:49;;;;;;;3.17;1.15;;;;;;;25.86;33.26;99791.06;5074869;28;20682;-37
2021/06/30 00:40:21;;;;;;;2.63;0.80;;;;;;;25.86;33.18;99791.06;5075272;28;20041;-37
2021/06/30 00:42:53;;;;;;;4.30;1.65;;;;;;;25.87;33.17;99791.91;5075024;28;20047;-37
2021/06/30 00:45:24;;;;;;;0.93;0.93;;;;;;;25.85;33.33;99789.41;5075410;28;20044;-37
2021/06/30 00:47:56;;;;;;;1.27;1.17;;;;;;;25.87;33.16;99789.22;5074747;28;20490;-37
2021/06/30 00:50:28;;;;;;;0.80;0.80;;;;;;;25.87;33.09;99789.22;5074798;28;20544;-38
2021/06/30 00:53:00;;;;;;;0.98;0.90;;;;;;;25.82;33.21;99784.44;5075314;28;20094;-37
2021/06/30 00:55:32;;;;;;;1.10;1.10;;;;;;;25.83;33.24;99785.28;5057632;28;20444;-37
2021/06/30 00:58:05;;;;;;;1.45;0.98;;;;;;;25.85;33.19;99793.94;5074209;28;20064;-37
2021/06/30 01:00:37;;;;;;;0.90;0.90;;;;;;;25.86;33.11;99791.06;5074933;28;20044;-37
2021/06/30 01:03:09;;;;;;;0.80;0.80;;;;;;;25.86;33.21;99795.59;5074998;28;20040;-37
2021/06/30 01:05:41;;;;;;;0.80;0.80;;;;;;;25.81;33.22;99793.47;5074276;28;20052;-38
2021/06/30 01:08:13;;;;;;;0.98;0.90;;;;;;;25.85;32.98;99793.94;5074750;28;20066;-37
2021/06/30 01:10:45;;;;;;;1.90;0.85;;;;;;;25.82;33.05;99788.97;5074381;28;20453;-37
2021/06/30 01:13:17;;;;;;;1.05;1.00;;;;;;;25.84;32.92;99793.13;5074884;28;20445;-37
2021/06/30 01:15:56;;;;;;;0.85;0.82;;;;;;;25.84;33.01;99790.44;5074453;28;20036;-37
2021/06/30 01:18:30;;;;;;;1.13;1.00;;;;;;;25.81;32.93;99785.47;5068246;28;20443;-37
2021/06/30 01:21:05;;;;;;;2.25;1.13;;;;;;;25.84;32.84;99792.28;5074431;28;20063;-37
2021/06/30 01:23:32;;;;;;;1.73;1.20;;;;;;;25.81;33.11;99788.13;5074515;28;20044;-36
2021/06/30 01:26:05;;;;;;;1.17;1.08;;;;;;;25.81;33.19;99798.00;5074135;28;20048;-37
2021/06/30 01:28:37;;;;;;;1.02;0.82;;;;;;;25.76;33.25;99787.88;5074305;28;20127;-37
2021/06/30 01:31:09;;;;;;;1.20;0.98;;;;;;;25.74;33.40;99795.25;5074245;28;20419;-37
2021/06/30 01:33:41;;;;;;;1.27;1.00;;;;;;;25.79;33.19;99786.69;5074342;28;20068;-38
2021/06/30 01:36:13;;;;;;;0.90;0.80;;;;;;;25.80;33.16;99785.66;5074163;28;20047;-37
2021/06/30 01:38:44;;;;;;;1.10;1.00;;;;;;;25.79;33.15;99784.00;5073962;28;20120;-38
2021/06/30 01:41:16;;;;;;;1.48;0.88;;;;;;;25.79;33.19;99776.81;5074166;28;20044;-37
2021/06/30 01:43:49;;;;;;;1.33;0.70;;;;;;;25.81;32.98;99779.31;5073792;28;20049;-37
2021/06/30 01:46:22;;;;;;;1.20;1.00;;;;;;;25.77;33.02;99778.00;5072022;28;20051;-37
2021/06/30 01:48:54;;;;;;;1.00;0.90;;;;;;;25.80;33.05;99780.31;5053730;28;20468;-37
2021/06/30 01:51:26;;;;;;;1.45;1.10;;;;;;;25.84;33.07;99778.94;5054059;28;20571;-37
2021/06/30 01:53:59;;;;;;;2.47;1.05;;;;;;;25.78;33.03;99772.50;5069793;28;20446;-37
2021/06/30 01:56:33;;;;;;;2.92;0.88;;;;;;;25.76;33.08;99771.03;5074081;28;20079;-38
2021/06/30 01:59:07;;;;;;;1.73;0.90;;;;;;;25.77;33.11;99767.34;5064913;28;20045;-37
2021/06/30 02:01:41;;;;;;;1.10;1.00;;;;;;;25.80;32.98;99770.47;5062432;28;20609;-37
2021/06/30 02:04:13;;;;;;;1.17;1.08;;;;;;;25.76;33.09;99774.50;5053346;28;20114;-37
2021/06/30 02:06:45;;;;;;;1.25;0.80;;;;;;;25.78;33.17;99774.31;5063391;28;20033;-37
2021/06/30 02:09:16;;;;;;;1.02;0.93;;;;;;;25.71;33.21;99776.06;5073170;28;20040;-38
2021/06/30 02:11:48;;;;;;;1.80;0.93;;;;;;;25.76;33.10;99779.03;5073594;28;20097;-37
2021/06/30 02:14:20;;;;;;;1.00;1.00;;;;;;;25.76;33.11;99776.34;5073108;28;20044;-38
2021/06/30 02:16:52;;;;;;;0.80;0.75;;;;;;;25.77;33.16;99778.00;5073598;28;20045;-37
2021/06/30 02:19:24;;;;;;;2.88;0.75;;;;;;;25.77;33.17;99781.50;5072927;28;20052;-37
2021/06/30 02:21:56;;;;;;;1.77;1.20;;;;;;;25.81;33.02;99774.78;5073453;28;20115;-37
2021/06/30 02:24:27;;;;;;;1.10;1.00;;;;;;;25.75;33.17;99777.38;5073658;28;20379;-37
2021/06/30 02:26:59;;;;;;;1.90;1.13;;;;;;;25.77;33.21;99786.03;5072722;28;20128;-37
2021/06/30 02:29:31;;;;;;;1.45;1.00;;;;;;;25.75;33.31;99777.38;5072928;28;20045;-37
2021/06/30 02:32:04;;;;;;;0.80;0.80;;;;;;;25.76;33.37;99779.03;5072816;28;20061;-36
2021/06/30 02:34:36;;;;;;;2.47;1.42;;;;;;;25.79;33.34;99774.16;5073488;28;20110;-39
2021/06/30 02:37:03;;;;;;;0.80;0.77;;;;;;;25.81;33.34;99776.63;5072857;28;20116;-39
2021/06/30 02:39:35;;;;;;;1.17;1.08;;;;;;;25.80;33.22;99777.66;5073337;28;20441;-39
2021/06/30 02:42:07;;;;;;;0.98;0.98;;;;;;;25.74;33.43;99781.03;5072732;28;20060;-38
2021/06/30 02:44:38;;;;;;;0.80;0.80;;;;;;;25.75;33.36;99772.03;5072816;28;20067;-38
2021/06/30 02:47:10;;;;;;;1.95;0.98;;;;;;;25.72;33.52;99772.38;5072832;28;20044;-38
2021/06/30 02:49:42;;;;;;;0.95;0.95;;;;;;;25.72;33.49;99773.19;5072579;28;20220;-38
2021/06/30 02:52:14;;;;;;;0.80;0.80;;;;;;;25.71;33.33;99776.06;5072433;28;20075;-39
2021/06/30 02:54:45;;;;;;;0.90;0.90;;;;;;;25.72;33.47;99780.38;5055128;28;20040;-38
2021/06/30 02:57:17;;;;;;;1.40;0.90;;;;;;;25.74;33.57;99781.03;5072744;28;20401;-38
2021/06/30 02:59:49;;;;;;;0.75;0.75;;;;;;;25.70;33.64;99779.75;5072383;28;20072;-40
2021/06/30 03:02:21;;;;;;;1.25;1.15;;;;;;;25.73;33.59;99787.41;5072987;28;20453;-38
2021/06/30 03:04:52;;;;;;;1.40;0.90;;;;;;;25.73;33.66;99782.88;5072847;28;20124;-38
2021/06/30 03:07:24;;;;;;;0.95;0.85;;;;;;;25.74;33.76;99783.72;5072369;28;20055;-38
2021/06/30 03:09:56;;;;;;;1.50;1.00;;;;;;;25.73;33.67;99793.56;5072349;28;20044;-39
2021/06/30 03:12:28;;;;;;;2.55;1.10;;;;;;;25.72;33.64;99799.88;5072984;28;20070;-38
2021/06/30 03:15:00;;;;;;;1.02;0.80;;;;;;;25.71;33.68;99797.41;5072032;28;20066;-38
2021/06/30 03:17:34;;;;;;;3.47;2.10;;;;;;;25.75;33.69;99790.72;5054695;28;20173;-38
2021/06/30 03:20:12;;;;;;;1.50;1.15;;;;;;;25.76;33.62;99792.38;5076356;28;20037;-38
2021/06/30 03:22:44;;;;;;;0.90;0.90;;;;;;;25.71;33.63;99790.22;5076702;28;20127;-38
2021/06/30 03:25:16;;;;;;;0.70;0.70;;;;;;;25.70;33.73;99795.75;5074629;28;20060;-38
2021/06/30 03:27:48;;;;;;;0.70;0.70;;;;;;;25.73;33.63;99801.56;5072725;28;20132;-38
2021/06/30 03:30:19;;;;;;;0.90;0.80;;;;;;;25.72;33.87;99799.06;5076158;28;20041;-38
2021/06/30 03:32:51;;;;;;;1.25;1.02;;;;;;;25.72;33.67;99799.06;5076236;28;20464;-39
2021/06/30 03:35:23;;;;;;;0.80;0.68;;;;;;;25.74;33.71;99805.06;5076378;28;20550;-38
2021/06/30 03:37:55;;;;;;;0.90;0.90;;;;;;;25.71;33.81;99794.75;5076229;28;20049;-38
2021/06/30 03:40:27;;;;;;;1.00;0.90;;;;;;;25.66;33.80;99800.63;5076124;28;20051;-38
2021/06/30 03:42:59;;;;;;;1.23;0.98;;;;;;;25.67;34.03;99807.63;5076029;28;20098;-38
2021/06/30 03:45:30;;;;;;;1.10;0.75;;;;;;;25.63;34.23;99802.88;5076008;28;20115;-38
2021/06/30 03:48:02;;;;;;;1.08;1.02;;;;;;;25.65;33.92;99798.97;5076435;28;20040;-39
2021/06/30 03:50:34;;;;;;;0.75;0.75;;;;;;;25.69;33.87;99804.78;5076109;28;20117;-38
2021/06/30 03:53:06;;;;;;;1.38;0.70;;;;;;;25.70;33.81;99801.09;5076324;28;20468;-39
2021/06/30 03:55:38;;;;;;;1.13;0.82;;;;;;;25.72;33.73;99799.88;5058128;28;20072;-38
2021/06/30 03:58:10;;;;;;;1.50;1.40;;;;;;;25.71;33.77;99798.22;5075690;28;20450;-38
2021/06/30 04:00:41;;;;;;;1.17;0.93;;;;;;;25.70;33.81;99783.25;5075691;28;20123;-39
2021/06/30 04:03:13;;;;;;;1.00;0.80;;;;;;;25.68;33.65;99787.13;5075750;28;20119;-38
2021/06/30 04:05:45;;;;;;;1.30;1.20;;;;;;;25.68;33.76;99776.44;5075659;28;20051;-38
2021/06/30 04:08:17;;;;;;;0.95;0.90;;;;;;;25.69;33.59;99778.91;5075336;28;20565;-38
2021/06/30 04:10:49;;;;;;;2.72;1.52;;;;;;;25.73;33.40;99784.72;5075878;28;20048;-38
2021/06/30 04:13:21;;;;;;;1.25;0.98;;;;;;;25.71;33.13;99790.22;5075781;28;20394;-38
2021/06/30 04:15:52;;;;;;;3.67;1.00;;;;;;;25.66;33.58;99792.63;5075462;28;20498;-38
2021/06/30 04:18:24;;;;;;;1.20;1.10;;;;;;;25.62;33.49;99804.72;5075048;28;20036;-38
2021/06/30 04:20:56;;;;;;;1.10;0.98;;;;;;;25.66;33.05;99797.13;5075568;28;20557;-38
2021/06/30 04:23:28;;;;;;;1.00;0.80;;;;;;;25.66;33.20;99797.13;5075511;28;20040;-38
2021/06/30 04:26:00;;;;;;;0.85;0.82;;;;;;;25.68;33.24;99797.81;5075353;28;20557;-38
2021/06/30 04:28:32;;;;;;;2.55;1.00;;;;;;;25.71;33.23;99798.22;5075034;28;20486;-38
2021/06/30 04:31:04;;;;;;;0.80;0.80;;;;;;;25.73;33.11;99801.56;5074715;28;20041;-38
2021/06/30 04:33:35;;;;;;;0.80;0.80;;;;;;;25.72;33.05;99799.06;5075351;28;20067;-39
2021/06/30 04:36:08;;;;;;;0.98;0.93;;;;;;;25.70;33.16;99806.44;5070729;28;20125;-38
2021/06/30 04:38:40;;;;;;;0.88;0.88;;;;;;;25.68;33.00;99797.81;5066193;28;20063;-38
2021/06/30 04:41:12;;;;;;;1.08;0.80;;;;;;;25.63;32.95;99809.03;5081223;28;20040;-38
2021/06/30 04:43:39;;;;;;;1.00;1.00;;;;;;;25.59;33.02;99799.72;5078724;28;20108;-39
2021/06/30 04:46:07;;;;;;;1.10;0.93;;;;;;;25.60;32.96;99796.88;5072368;28;20032;-37
2021/06/30 04:48:39;;;;;;;2.70;1.45;;;;;;;25.60;33.00;99802.19;5071337;28;20119;-38
2021/06/30 04:51:11;;;;;;;1.00;0.95;;;;;;;25.62;32.95;99794.03;5074212;28;20064;-38
2021/06/30 04:53:38;;;;;;;0.80;0.80;;;;;;;25.61;32.87;99793.19;5077589;28;20118;-39
2021/06/30 04:56:10;;;;;;;0.70;0.70;;;;;;;25.60;32.88;99796.88;5078093;28;20533;-39
2021/06/30 04:58:42;;;;;;;1.55;0.80;;;;;;;25.65;32.77;99790.97;5074711;28;20125;-36
2021/06/30 05:01:13;;;;;;;0.90;0.90;;;;;;;25.64;32.81;99792.00;5073536;28;20060;-38
2021/06/30 05:03:45;;;;;;;1.10;0.90;;;;;;;25.67;32.72;99804.13;5070339;28;20120;-39
2021/06/30 05:06:17;;;;;;;1.17;1.00;;;;;;;25.70;32.80;99799.25;5073536;28;20577;-38
2021/06/30 05:08:49;;;;;;;1.27;0.95;;;;;;;25.73;32.78;99800.75;5073735;28;20485;-38
2021/06/30 05:11:21;;;;;;;3.03;1.00;;;;;;;25.74;32.95;99802.41;5073561;28;20107;-38
2021/06/30 05:13:53;;;;;;;1.55;0.80;;;;;;;25.74;32.77;99805.06;5075597;28;20078;-37
2021/06/30 05:16:25;;;;;;;0.90;0.82;;;;;;;25.70;32.96;99801.09;5073536;28;20040;-38
2021/06/30 05:18:57;;;;;;;1.35;0.90;;;;;;;25.72;32.84;99793.72;5071213;28;20095;-39
2021/06/30 05:21:29;;;;;;;1.35;1.00;;;;;;;25.71;32.91;99800.09;5073887;28;20040;-38
2021/06/30 05:24:01;;;;;;;1.15;0.93;;;;;;;25.72;33.05;99793.72;5074467;28;20060;-38
2021/06/30 05:26:33;;;;;;;0.88;0.80;;;;;;;25.68;33.08;99797.81;5040498;28;20048;-39
2021/06/30 05:29:05;;;;;;;0.93;0.90;;;;;;;25.66;33.17;99795.28;5074302;28;20131;-38
2021/06/30 05:31:37;;;;;;;1.25;1.00;;;;;;;25.73;33.08;99798.06;5074117;28;20489;-38
2021/06/30 05:34:08;;;;;;;1.33;1.00;;;;;;;25.70;33.25;99799.25;5057235;28;20032;-38
2021/06/30 05:36:47;;;;;;;0.95;0.95;;;;;;;25.74;33.22;99802.41;5074715;28;20040;-38
2021/06/30 05:39:20;;;;;;;1.77;0.88;;;;;;;25.73;33.23;99798.91;5073377;28;20448;-38
2021/06/30 05:41:47;;;;;;;0.98;0.98;;;;;;;25.73;33.19;99795.41;5073349;28;20037;-38
2021/06/30 05:44:20;;;;;;;0.90;0.90;;;;;;;25.74;33.24;99786.38;5073526;28;20119;-38
2021/06/30 05:46:51;;;;;;;0.98;0.90;;;;;;;25.78;33.11;99793.00;5074061;28;20569;-39
2021/06/30 05:49:24;;;;;;;0.88;0.88;;;;;;;25.78;33.21;99788.53;5073393;28;20043;-38
2021/06/30 05:51:56;;;;;;;1.75;1.25;;;;;;;25.81;33.08;99792.66;5074746;28;20033;-38
2021/06/30 05:54:28;;;;;;;0.90;0.90;;;;;;;25.80;33.15;99791.00;5090807;28;20135;-39
2021/06/30 05:57:00;;;;;;;1.25;1.15;;;;;;;25.82;33.09;99797.78;5073678;28;20071;-38
2021/06/30 05:59:32;;;;;;;2.72;1.13;;;;;;;25.86;33.16;99800.94;5074137;28;20067;-38
2021/06/30 06:02:04;;;;;;;1.50;1.20;;;;;;;25.79;33.22;99802.69;5073725;28;20062;-39
2021/06/30 06:04:35;;;;;;;1.20;0.80;;;;;;;25.77;32.96;99810.03;5073519;28;20490;-39
2021/06/30 06:07:07;;;;;;;0.95;0.82;;;;;;;25.74;33.39;99811.25;5073459;28;20076;-39
2021/06/30 06:09:39;;;;;;;0.95;0.88;;;;;;;25.74;33.37;99808.59;5073826;28;20049;-38
2021/06/30 06:12:11;;;;;;;0.90;0.90;;;;;;;25.82;33.23;99799.63;5073404;28;20107;-37
2021/06/30 06:14:42;;;;;;;1.58;0.98;;;;;;;25.80;33.15;99807.00;5073446;28;20044;-38
2021/06/30 06:17:09;;;;;;;1.00;0.80;;;;;;;25.70;33.34;99814.44;5072979;28;20047;-38
2021/06/30 06:19:41;;;;;;;1.85;0.70;;;;;;;25.75;33.38;99822.75;5073356;28;20045;-37
2021/06/30 06:22:13;;;;;;;1.40;1.08;;;;;;;25.81;33.25;99814.00;5073444;28;20068;-38
2021/06/30 06:24:45;;;;;;;3.53;0.70;;;;;;;25.84;33.27;99825.16;5073666;28;20051;-38
2021/06/30 06:27:16;;;;;;;1.08;0.80;;;;;;;25.79;33.29;99818.72;5073073;28;20090;-37
2021/06/30 06:29:50;;;;;;;1.13;0.85;;;;;;;25.71;33.47;99816.09;5073015;28;20037;-38
2021/06/30 06:32:22;;;;;;;1.30;1.20;;;;;;;25.75;33.38;99823.59;5072577;28;20486;-38
2021/06/30 06:34:53;;;;;;;0.90;0.75;;;;;;;25.82;33.38;99824.50;5073370;28;20037;-38
2021/06/30 06:37:25;;;;;;;1.33;0.95;;;;;;;25.80;33.34;99817.69;5072983;28;20398;-38
2021/06/30 06:39:58;;;;;;;0.90;0.85;;;;;;;25.76;33.31;99824.41;5073315;28;20044;-39
2021/06/30 06:42:31;;;;;;;1.15;0.88;;;;;;;25.78;33.35;99819.69;5060901;28;20033;-40
2021/06/30 06:45:05;;;;;;;1.17;0.93;;;;;;;25.75;33.45;99828.09;5075753;28;20609;-38
2021/06/30 06:47:32;;;;;;;0.80;0.80;;;;;;;25.78;33.36;99827.72;5073772;28;20295;-39
2021/06/30 06:50:05;;;;;;;1.38;1.17;;;;;;;25.79;33.46;99834.72;5072019;28;20123;-38
2021/06/30 06:52:37;;;;;;;2.42;0.85;;;;;;;25.83;33.42;99844.00;5072055;28;20037;-38
2021/06/30 06:55:13;;;;;;;1.10;1.02;;;;;;;25.76;33.62;99833.25;5066312;28;20383;-39
2021/06/30 06:57:45;;;;;;;2.95;0.98;;;;;;;25.82;33.43;99834.34;5071967;28;20041;-38
2021/06/30 07:00:18;;;;;;;1.88;1.00;;;;;;;25.80;33.37;99839.88;5067703;28;20123;-39
2021/06/30 07:02:49;;;;;;;1.27;0.75;;;;;;;25.83;33.52;99833.31;5072671;28;20123;-38
2021/06/30 07:05:25;;;;;;;0.80;0.80;;;;;;;25.87;33.29;99834.63;5051196;28;20060;-38
2021/06/30 07:08:09;;;;;;;2.33;1.00;;;;;;;25.89;33.30;99842.44;4971886;28;20082;-40
2021/06/30 07:10:41;;;;;;;2.78;0.90;;;;;;;25.88;33.26;99836.28;4972831;28;20308;-40
2021/06/30 07:13:13;;;;;;;1.55;0.80;;;;;;;25.84;33.41;99835.84;4974362;28;20113;-40
2021/06/30 07:15:45;;;;;;;1.50;0.90;;;;;;;25.85;33.33;99842.81;4973672;28;20081;-41
2021/06/30 07:18:17;;;;;;;1.55;1.00;;;;;;;25.82;33.34;99834.34;4973919;28;20134;-39
2021/06/30 07:20:48;;;;;;;0.82;0.80;;;;;;;25.82;33.27;99834.34;4973748;28;20078;-39
2021/06/30 07:23:20;;;;;;;1.17;1.08;;;;;;;25.79;33.39;99826.72;4974237;28;20050;-40
2021/06/30 07:25:52;;;;;;;1.05;0.80;;;;;;;25.83;33.14;99828.00;4973792;28;20606;-40
2021/06/30 07:28:25;;;;;;;1.17;1.05;;;;;;;25.81;33.20;99836.19;4974092;28;20051;-40
2021/06/30 07:30:57;;;;;;;5.25;1.17;;;;;;;25.81;32.96;99830.03;4974140;28;20050;-40
2021/06/30 07:33:29;;;;;;;1.05;0.95;;;;;;;25.80;33.10;99833.72;4973918;28;20402;-40
2021/06/30 07:36:01;;;;;;;1.00;0.90;;;;;;;25.77;33.03;99829.56;4973794;28;20066;-40
2021/06/30 07:38:32;;;;;;;0.90;0.80;;;;;;;25.77;32.96;99823.41;4973787;28;20458;-40
2021/06/30 07:41:04;;;;;;;0.88;0.88;;;;;;;25.74;33.05;99829.09;4973807;28;20062;-40
2021/06/30 07:43:36;;;;;;;1.13;1.02;;;;;;;25.74;32.88;99834.44;4973740;28;20047;-40
2021/06/30 07:46:04;;;;;;;1.40;1.13;;;;;;;25.78;33.04;99828.56;4973649;28;20509;-40
2021/06/30 07:48:31;;;;;;;0.65;0.65;;;;;;;25.79;32.87;99821.38;4973283;28;20413;-40
2021/06/30 07:50:58;;;;;;;0.88;0.88;;;;;;;25.80;32.92;99826.53;4973903;28;20049;-40
2021/06/30 07:53:24;;;;;;;1.10;1.00;;;;;;;25.76;33.01;99825.25;4973358;28;20043;-40
2021/06/30 07:55:52;;;;;;;1.73;0.82;;;;;;;25.78;32.92;99830.38;4973662;28;20389;-40
2021/06/30 07:58:20;;;;;;;0.90;0.90;;;;;;;25.77;32.92;99818.06;4973500;28;20043;-40
2021/06/30 08:00:48;;;;;;;1.23;0.60;;;;;;;25.72;33.06;99817.75;4973554;28;20053;-40
2021/06/30 08:03:16;;;;;;;0.80;0.80;;;;;;;25.73;32.91;99822.94;4980227;28;20046;-40
2021/06/30 08:05:43;;;;;;;0.90;0.80;;;;;;;25.75;33.00;99828.94;4994038;28;20125;-39
2021/06/30 08:08:10;;;;;;;1.30;0.90;;;;;;;25.74;33.08;99823.75;4996760;28;20053;-40
2021/06/30 08:10:36;;;;;;;0.60;0.60;;;;;;;25.74;32.88;99829.94;4996247;28;20056;-40
2021/06/30 08:13:03;;;;;;;3.17;0.90;;;;;;;25.76;33.02;99827.91;4996757;28;20451;-40
2021/06/30 08:15:31;;;;;;;1.25;0.93;;;;;;;25.75;32.98;99825.44;4996096;28;20085;-39
2021/06/30 08:17:57;;;;;;;1.65;0.82;;;;;;;25.76;32.91;99840.44;4996397;28;20472;-38
2021/06/30 08:20:24;;;;;;;2.08;1.52;;;;;;;25.78;32.99;99838.38;4996148;28;20049;-40
2021/06/30 08:22:51;;;;;;;0.88;0.85;;;;;;;25.76;32.93;99832.41;4996335;28;20070;-40
2021/06/30 08:25:20;;;;;;;1.08;0.88;;;;;;;25.77;32.93;99836.75;4996107;28;20050;-40
2021/06/30 08:27:47;;;;;;;1.42;1.33;;;;;;;25.80;32.79;99839.06;4996348;28;20056;-40
2021/06/30 08:30:15;;;;;;;0.70;0.70;;;;;;;25.79;32.75;99832.88;4996119;28;20046;-40
2021/06/30 08:32:44;;;;;;;1.85;0.75;;;;;;;25.82;32.68;99837.00;4995842;28;20070;-40
2021/06/30 08:35:10;;;;;;;1.52;0.80;;;;;;;25.81;32.82;99824.69;4990812;28;20039;-40
2021/06/30 08:37:44;;;;;;;1.52;1.23;;;;;;;25.75;32.79;99831.59;4993135;28;20044;-40
2021/06/30 08:40:13;;;;;;;2.67;0.75;;;;;;;25.77;32.75;99828.72;4995774;28;20397;-40
2021/06/30 08:42:41;;;;;;;0.80;0.80;;;;;;;25.77;33.02;99837.56;4995094;28;20493;-40
2021/06/30 08:45:09;;;;;;;0.95;0.95;;;;;;;25.73;32.95;99836.28;4995392;28;20466;-40
2021/06/30 08:47:38;;;;;;;1.10;0.80;;;;;;;25.74;33.25;99837.09;4995388;28;20054;-40
2021/06/30 08:50:07;;;;;;;1.73;1.23;;;;;;;25.75;33.16;99839.59;4995443;28;20057;-40
2021/06/30 08:52:35;;;;;;;1.17;1.08;;;;;;;25.74;33.07;99834.44;4995123;28;20042;-40
2021/06/30 08:55:06;;;;;;;0.82;0.70;;;;;;;25.76;33.16;99819.91;4977969;28;20045;-40
2021/06/30 08:57:33;;;;;;;1.70;1.00;;;;;;;25.75;33.10;99825.44;4995044;28;20062;-40
2021/06/30 09:00:01;;;;;;;1.00;0.77;;;;;;;25.74;33.28;99829.09;4995114;28;20074;-39
2021/06/30 09:02:27;;;;;;;1.60;0.75;;;;;;;25.75;33.32;99820.09;4995387;28;20116;-40
2021/06/30 09:07:51;;;;;;;0.60;0.60;;;;;;;25.77;33.33;99824.22;4972338;28;20101;-40
2021/06/30 09:10:39;;;;;;;1.08;0.80;;;;;;;25.82;33.07;99823.66;4995097;28;20125;-40
2021/06/30 09:13:17;;;;;;;1.75;1.27;;;;;;;25.80;33.26;99825.72;4992668;28;20054;-40
2021/06/30 09:15:45;;;;;;;1.15;0.80;;;;;;;25.78;33.40;99820.56;4994557;28;20053;-40
2021/06/30 09:18:19;;;;;;;0.70;0.70;;;;;;;25.77;33.35;99821.56;4995163;28;20046;-40
2021/06/30 09:20:46;;;;;;;2.80;0.75;;;;;;;25.74;33.35;99819.28;4995186;28;20042;-40
2021/06/30 09:23:13;;;;;;;0.70;0.70;;;;;;;25.76;33.44;99827.09;4995236;28;20038;-40
2021/06/30 09:25:42;;;;;;;1.25;0.82;;;;;;;25.77;33.38;99831.41;4977430;28;20046;-40
2021/06/30 09:28:18;;;;;;;0.90;0.70;;;;;;;25.81;33.38;99827.34;4994914;28;20493;-40
2021/06/30 09:31:06;;;;;;;1.02;1.00;;;;;;;25.80;33.29;99829.19;4994600;28;20489;-40
2021/06/30 09:33:51;;;;;;;1.08;0.68;;;;;;;25.76;33.38;99824.41;4994980;28;20174;-40
2021/06/30 09:36:20;;;;;;;1.77;1.05;;;;;;;25.76;33.35;99827.09;4994779;28;20070;-40
2021/06/30 09:38:47;;;;;;;0.68;0.68;;;;;;;25.76;33.51;99811.88;4995012;28;20053;-38
2021/06/30 09:41:22;;;;;;;1.35;0.80;;;;;;;25.80;33.58;99820.38;4994170;28;20038;-41
2021/06/30 09:43:49;;;;;;;2.85;0.90;;;;;;;25.77;33.61;99826.88;4975358;28;20039;-40
2021/06/30 09:46:25;;;;;;;1.27;0.60;;;;;;;25.77;33.54;99826.88;4987648;28;20121;-35
2021/06/30 09:48:57;;;;;;;0.77;0.60;;;;;;;25.79;33.51;99816.88;4994563;28;20609;-40
2021/06/30 09:51:24;;;;;;;1.10;0.80;;;;;;;25.80;33.63;99823.03;4994376;28;20549;-40
2021/06/30 09:53:52;;;;;;;1.10;1.00;;;;;;;25.80;33.56;99823.84;4994945;28;20046;-39
2021/06/30 09:56:33;;;;;;;1.17;0.90;;;;;;;25.79;33.54;99816.03;4994299;28;20069;-37
2021/06/30 09:59:09;;;;;;;1.73;1.00;;;;;;;25.80;33.51;99820.38;4994851;28;20046;-40
2021/06/30 10:01:37;;;;;;;0.75;0.70;;;;;;;25.78;33.55;99817.88;4994257;28;20066;-40
2021/06/30 10:04:04;;;;;;;1.73;1.05;;;;;;;25.79;33.69;99824.06;4994367;28;20042;-40
2021/06/30 10:06:34;;;;;;;1.27;0.70;;;;;;;25.81;33.50;99820.16;4994373;28;20054;-40
2021/06/30 10:09:13;;;;;;;1.38;1.13;;;;;;;25.81;33.74;99830.84;4993968;28;20042;-39
2021/06/30 10:11:41;;;;;;;2.72;0.65;;;;;;;25.80;33.67;99828.38;4994194;28;20053;-39
2021/06/30 10:14:08;;;;;;;0.85;0.60;;;;;;;25.77;33.76;99829.56;4993671;28;20050;-38
2021/06/30 10:16:36;;;;;;;0.90;0.85;;;;;;;25.79;33.68;99821.38;4994081;28;20138;-40
2021/06/30 10:19:03;;;;;;;1.75;0.77;;;;;;;25.81;33.69;99819.34;4993902;28;20093;-39
2021/06/30 10:21:30;;;;;;;1.27;0.77;;;;;;;25.77;33.75;99823.41;4994329;28;20104;-37
2021/06/30 10:23:58;;;;;;;1.60;0.80;;;;;;;25.80;33.94;99823.84;4993890;28;20072;-39
2021/06/30 10:26:26;;;;;;;0.93;0.63;;;;;;;25.78;33.68;99820.56;4993641;28;20050;-39
2021/06/30 10:28:56;;;;;;;0.90;0.90;;;;;;;25.84;33.61;99813.66;4993005;28;20054;-40
2021/06/30 10:31:23;;;;;;;0.85;0.82;;;;;;;25.87;33.85;99807.91;4993991;28;20048;-40
2021/06/30 10:34:00;;;;;;;1.15;0.70;;;;;;;25.80;33.83;99812.34;4994116;28;20042;-40
2021/06/30 10:36:50;;;;;;;0.50;0.50;;;;;;;25.80;33.84;99815.03;4994037;28;20042;-40
2021/06/30 10:39:36;;;;;;;1.45;1.20;;;;;;;25.81;33.82;99819.34;4974403;28;20046;-40
2021/06/30 10:42:17;;;;;;;3.10;0.77;;;;;;;25.85;33.69;99815.31;4974474;28;20098;-39
2021/06/30 10:44:52;;;;;;;1.13;1.02;;;;;;;25.82;33.80;99813.00;4993698;28;20046;-39
2021/06/30 10:47:44;;;;;;;2.25;0.82;;;;;;;25.81;33.84;99820.16;4993818;28;20105;-40
2021/06/30 10:50:22;;;;;;;1.38;0.80;;;;;;;25.79;33.97;99816.03;4993713;28;20053;-39
2021/06/30 10:52:55;;;;;;;1.17;1.08;;;;;;;25.79;33.84;99805.38;4993677;28;20058;-39
2021/06/30 10:55:35;;;;;;;0.68;0.68;;;;;;;25.80;33.77;99809.69;4993568;28;20043;-40
2021/06/30 10:58:14;;;;;;;1.23;0.60;;;;;;;25.79;33.78;99816.03;4993541;28;20043;-40
2021/06/30 11:01:05;;;;;;;1.55;0.73;;;;;;;25.77;33.72;99808.19;4993755;28;20413;-40
2021/06/30 11:03:53;;;;;;;2.08;0.70;;;;;;;25.84;33.71;99802.97;4993806;28;20061;-39
2021/06/30 11:06:23;;;;;;;2.33;0.70;;;;;;;25.86;33.67;99796.41;4993215;28;20046;-36
2021/06/30 11:09:12;;;;;;;2.63;0.70;;;;;;;25.81;33.80;99806.81;4993244;28;20090;-40
2021/06/30 11:11:45;;;;;;;0.70;0.68;;;;;;;25.81;33.63;99798.81;4963244;28;20046;-39
2021/06/30 11:14:13;;;;;;;4.03;0.60;;;;;;;25.87;33.74;99786.56;4992142;28;20625;-40
2021/06/30 11:16:40;;;;;;;0.65;0.50;;;;;;;25.88;33.63;99792.72;4993294;28;20038;-40
2021/06/30 11:19:14;;;;;;;0.63;0.63;;;;;;;25.82;33.73;99800.47;4976133;28;20462;-41
2021/06/30 11:22:08;;;;;;;0.60;0.60;;;;;;;25.79;33.64;99794.69;4993516;28;20039;-40
2021/06/30 11:24:35;;;;;;;0.65;0.60;;;;;;;25.79;33.71;99794.69;4993199;28;20047;-39
2021/06/30 11:27:19;;;;;;;0.80;0.80;;;;;;;25.79;33.64;99790.16;4993442;28;20482;-40
2021/06/30 11:30:03;;;;;;;1.17;0.70;;;;;;;25.78;33.78;99787.66;4992802;28;20049;-39
2021/06/30 11:32:35;;;;;;;1.42;0.70;;;;;;;25.81;33.89;99784.63;4993440;28;20070;-40
2021/06/30 11:35:22;;;;;;;0.60;0.60;;;;;;;25.85;33.65;99780.59;4992850;28;20078;-40
2021/06/30 11:38:12;;;;;;;0.93;0.63;;;;;;;25.81;33.73;99781.97;4993489;28;20050;-38
2021/06/30 11:41:04;;;;;;;1.02;0.70;;;;;;;25.85;33.53;99776.06;4995857;28;20050;-40
2021/06/30 11:43:42;;;;;;;1.00;0.90;;;;;;;25.88;33.50;99777.53;4996947;28;20055;-40
2021/06/30 11:46:09;;;;;;;1.90;0.82;;;;;;;25.86;33.58;99779.56;4997073;28;20051;-40
2021/06/30 11:48:38;;;;;;;0.43;0.43;;;;;;;25.82;33.54;99772.94;4997119;28;20465;-40
2021/06/30 11:51:13;;;;;;;1.35;0.65;;;;;;;25.81;33.45;99771.28;4996606;28;20039;-40
2021/06/30 11:53:46;;;;;;;2.25;0.70;;;;;;;25.82;33.59;99775.59;4996543;28;20505;-40
2021/06/30 11:56:17;;;;;;;2.03;0.70;;;;;;;25.83;33.72;99766.59;4996631;28;20401;-40
2021/06/30 11:58:47;;;;;;;1.73;0.60;;;;;;;25.85;33.64;99762.72;4996579;28;20521;-40
2021/06/30 12:01:18;;;;;;;0.80;0.80;;;;;;;25.82;33.68;99756.91;4996452;28;20046;-40